Gulf Bridge — A8JM5 — position and weather

sailwx.info

Track history (hours):
 
Tides and Currents Weather Stations Pressure Air Temp Water Temp Dewpoint Dewpoint Depression Visibility Wind Speed Wind Dir Waves Ship Positions

Gulf Bridge

Last reported at 2015-Mar-28 17:14 UTC. Time now 2015-Mar-31 09:49 UTC.
Position S 25°18' E 153°25'.

Length 213 m; beam 32.2 m; draft 11.5 m.

Type: Cargo ship. MMSI: 636091115.

Date/timePositionNaut miles runAvg speedWind from/ knotsBaromVisibWave heightAir tempDewpointWater temp
2015-Mar-28 17:14S 25°18' E 153°25'2414.3
2015-Mar-28 15:32S 25°42' E 153°22'1614.0
2015-Mar-28 14:22S 25°58' E 153°19'3014.1
2015-Mar-28 12:14S 26°28' E 153°16'1013.9
2015-Mar-28 11:31S 26°38' E 153°15'1212.3
2015-Mar-28 10:33S 26°49' E 153°10'1616.4
2015-Mar-28 09:33S 27°04' E 153°18'1514.5
2015-Mar-28 08:33S 27°17' E 153°13'5 4.9
2015-Mar-28 07:33S 27°22' E 153°11'0 0.0
2015-Mar-28 06:31S 27°22' E 153°11'0 0.0
2015-Mar-28 05:31S 27°22' E 153°11'0 0.0
2015-Mar-28 04:31S 27°22' E 153°11'0 0.0
2015-Mar-28 03:31S 27°22' E 153°11'0 0.0
2015-Mar-28 02:31S 27°22' E 153°11'0 0.0
2015-Mar-28 01:31S 27°22' E 153°11'0 0.0
2015-Mar-28 00:31S 27°22' E 153°11'0 0.0
2015-Mar-27 23:31S 27°22' E 153°11'0 0.0
2015-Mar-27 22:31S 27°22' E 153°11'0 0.0
2015-Mar-27 21:31S 27°22' E 153°11'0 0.0
2015-Mar-27 20:31S 27°22' E 153°11'0 0.0
2015-Mar-27 19:31S 27°22' E 153°11'0 0.0
2015-Mar-27 18:31S 27°22' E 153°11'0 0.0
2015-Mar-27 17:31S 27°22' E 153°11'0 0.0
2015-Mar-27 16:31S 27°22' E 153°11'0 0.0
2015-Mar-27 15:31S 27°22' E 153°11'0 0.0
2015-Mar-27 14:31S 27°22' E 153°11'0 0.0
2015-Mar-27 13:31S 27°22' E 153°11'0 0.0
2015-Mar-27 12:31S 27°22' E 153°11'0 0.0
2015-Mar-27 11:31S 27°22' E 153°11'0 0.0
2015-Mar-27 10:31S 27°22' E 153°11'0 0.0
2015-Mar-27 09:31S 27°22' E 153°11'0 0.0
2015-Mar-27 08:31S 27°22' E 153°11'0 0.0
2015-Mar-27 07:31S 27°22' E 153°11'0 0.0
2015-Mar-27 06:31S 27°22' E 153°11'0 0.0
2015-Mar-27 05:31S 27°22' E 153°11'0 0.4
2015-Mar-27 04:33S 27°21' E 153°11'1111.1
2015-Mar-27 03:34S 27°14' E 153°20'1616.3
2015-Mar-27 02:33S 26°59' E 153°14'1515.1
2015-Mar-27 01:34S 26°44' E 153°11'6 5.8
2015-Mar-27 00:34S 26°45' E 153°17'1917.6
2015-Mar-26 23:30S 26°49' E 153°37'1718.4
2015-Mar-26 22:34S 27°05' E 153°45'1817.9
2015-Mar-26 21:34S 27°21' E 153°54'2017.8
2015-Mar-26 20:28S 27°40' E 153°60'1818.0
2015-Mar-26 19:28S 27°58' E 154°00'1717.7
2015-Mar-26 18:32S 28°15' E 153°60'25019.1
2015-Mar-26 05:27S 32°18' E 152°56'1819.9
2015-Mar-26 04:34S 32°34' E 152°46'2120.6
2015-Mar-26 03:34S 32°51' E 152°31'2020.0
2015-Mar-26 02:34S 33°06' E 152°17'2019.3
2015-Mar-26 01:32S 33°22' E 152°01'  
2015-Mar-22 06:11S 37°52' E 149°50'913.0
2015-Mar-22 05:30S 37°60' E 149°45'2 1.9
2015-Mar-22 04:20S 37°58' E 149°46'8 1.4
2015-Mar-21 22:23S 37°50' E 149°51'36 8.3
2015-Mar-21 18:03S 38°13' E 149°15'5 9.9
2015-Mar-21 17:33S 38°16' E 149°11'10 9.7
2015-Mar-21 16:33S 38°21' E 149°00'9 9.4
2015-Mar-21 15:33S 38°27' E 148°51'12 9.3
2015-Mar-21 14:17S 38°34' E 148°38'7 9.2
2015-Mar-21 13:32S 38°38' E 148°32'12 8.8
2015-Mar-21 12:07S 38°46' E 148°19'34 9.3
2015-Mar-21 08:30S 38°57' E 147°38'1011.0
2015-Mar-21 07:33S 39°01' E 147°26'1211.7
2015-Mar-21 06:33S 39°05' E 147°12'1211.7
2015-Mar-21 05:33S 39°10' E 146°58'1111.5
2015-Mar-21 04:33S 39°14' E 146°44'1111.0
2015-Mar-21 03:33S 39°17' E 146°30'1110.7
2015-Mar-21 02:33S 39°17' E 146°16'1010.4
2015-Mar-21 01:33S 39°12' E 146°04'1010.5
2015-Mar-21 00:33S 39°06' E 145°53'1110.6
2015-Mar-20 23:31S 39°00' E 145°41'4710.8
2015-Mar-20 19:12S 38°35' E 144°51'1110.4
2015-Mar-20 18:09S 38°27' E 144°41'9 9.9
2015-Mar-20 17:12S 38°19' E 144°35'62 2.0
2015-Mar-19 10:33S 38°55' E 145°40'1616.3
2015-Mar-19 09:34S 39°03' E 145°58'1615.8
2015-Mar-19 08:34S 39°11' E 146°16'1615.8
2015-Mar-19 07:34S 39°09' E 146°36'1616.5
2015-Mar-19 06:33S 39°08' E 146°57'1616.5
2015-Mar-19 05:34S 39°08' E 147°19'1616.1
2015-Mar-19 04:34S 39°09' E 147°39'1615.8
2015-Mar-19 03:33S 39°10' E 147°60'1615.6
2015-Mar-19 02:34S 39°12' E 148°20'1615.6
2015-Mar-19 01:33S 39°13' E 148°40'1716.7
2015-Mar-19 00:33S 39°14' E 149°01'1717.0
2015-Mar-18 23:33S 39°15' E 149°23'3818.0
2015-Mar-18 21:26S 39°17' E 150°12'  
Track history (hours):
 
Tides and Currents Weather Stations Pressure Air Temp Water Temp Dewpoint Dewpoint Depression Visibility Wind Speed Wind Dir Waves Ship Positions

Gulf Bridge

Last reported at 2015-Mar-28 17:14 UTC. Time now 2015-Mar-31 09:49 UTC.
Position S 25°18' E 153°25'.

Length 213 m; beam 32.2 m; draft 11.5 m.

Type: Cargo ship. MMSI: 636091115.

Date/timePositionNaut miles runAvg speedWind from/ knotsBaromVisibWave heightAir tempDewpointWater temp
2015-Mar-28 17:14S 25°18' E 153°25'2414.3
2015-Mar-28 15:32S 25°42' E 153°22'1614.0
2015-Mar-28 14:22S 25°58' E 153°19'3014.1
2015-Mar-28 12:14S 26°28' E 153°16'1013.9
2015-Mar-28 11:31S 26°38' E 153°15'1212.3
2015-Mar-28 10:33S 26°49' E 153°10'1616.4
2015-Mar-28 09:33S 27°04' E 153°18'1514.5
2015-Mar-28 08:33S 27°17' E 153°13'5 4.9
2015-Mar-28 07:33S 27°22' E 153°11'0 0.0
2015-Mar-28 06:31S 27°22' E 153°11'0 0.0
2015-Mar-28 05:31S 27°22' E 153°11'0 0.0
2015-Mar-28 04:31S 27°22' E 153°11'0 0.0
2015-Mar-28 03:31S 27°22' E 153°11'0 0.0
2015-Mar-28 02:31S 27°22' E 153°11'0 0.0
2015-Mar-28 01:31S 27°22' E 153°11'0 0.0
2015-Mar-28 00:31S 27°22' E 153°11'0 0.0
2015-Mar-27 23:31S 27°22' E 153°11'0 0.0
2015-Mar-27 22:31S 27°22' E 153°11'0 0.0
2015-Mar-27 21:31S 27°22' E 153°11'0 0.0
2015-Mar-27 20:31S 27°22' E 153°11'0 0.0
2015-Mar-27 19:31S 27°22' E 153°11'0 0.0
2015-Mar-27 18:31S 27°22' E 153°11'0 0.0
2015-Mar-27 17:31S 27°22' E 153°11'0 0.0
2015-Mar-27 16:31S 27°22' E 153°11'0 0.0
2015-Mar-27 15:31S 27°22' E 153°11'0 0.0
2015-Mar-27 14:31S 27°22' E 153°11'0 0.0
2015-Mar-27 13:31S 27°22' E 153°11'0 0.0
2015-Mar-27 12:31S 27°22' E 153°11'0 0.0
2015-Mar-27 11:31S 27°22' E 153°11'0 0.0
2015-Mar-27 10:31S 27°22' E 153°11'0 0.0
2015-Mar-27 09:31S 27°22' E 153°11'0 0.0
2015-Mar-27 08:31S 27°22' E 153°11'0 0.0
2015-Mar-27 07:31S 27°22' E 153°11'0 0.0
2015-Mar-27 06:31S 27°22' E 153°11'0 0.0
2015-Mar-27 05:31S 27°22' E 153°11'0 0.4
2015-Mar-27 04:33S 27°21' E 153°11'1111.1
2015-Mar-27 03:34S 27°14' E 153°20'1616.3
2015-Mar-27 02:33S 26°59' E 153°14'1515.1
2015-Mar-27 01:34S 26°44' E 153°11'6 5.8
2015-Mar-27 00:34S 26°45' E 153°17'1917.6
2015-Mar-26 23:30S 26°49' E 153°37'1718.4
2015-Mar-26 22:34S 27°05' E 153°45'1817.9
2015-Mar-26 21:34S 27°21' E 153°54'2017.8
2015-Mar-26 20:28S 27°40' E 153°60'1818.0
2015-Mar-26 19:28S 27°58' E 154°00'1717.7
2015-Mar-26 18:32S 28°15' E 153°60'25019.1
2015-Mar-26 05:27S 32°18' E 152°56'1819.9
2015-Mar-26 04:34S 32°34' E 152°46'2120.6
2015-Mar-26 03:34S 32°51' E 152°31'2020.0
2015-Mar-26 02:34S 33°06' E 152°17'2019.3
2015-Mar-26 01:32S 33°22' E 152°01'  
2015-Mar-22 06:11S 37°52' E 149°50'913.0
2015-Mar-22 05:30S 37°60' E 149°45'2 1.9
2015-Mar-22 04:20S 37°58' E 149°46'8 1.4
2015-Mar-21 22:23S 37°50' E 149°51'36 8.3
2015-Mar-21 18:03S 38°13' E 149°15'5 9.9
2015-Mar-21 17:33S 38°16' E 149°11'10 9.7
2015-Mar-21 16:33S 38°21' E 149°00'9 9.4
2015-Mar-21 15:33S 38°27' E 148°51'12 9.3
2015-Mar-21 14:17S 38°34' E 148°38'7 9.2
2015-Mar-21 13:32S 38°38' E 148°32'12 8.8
2015-Mar-21 12:07S 38°46' E 148°19'34 9.3
2015-Mar-21 08:30S 38°57' E 147°38'1011.0
2015-Mar-21 07:33S 39°01' E 147°26'1211.7
2015-Mar-21 06:33S 39°05' E 147°12'1211.7
2015-Mar-21 05:33S 39°10' E 146°58'1111.5
2015-Mar-21 04:33S 39°14' E 146°44'1111.0
2015-Mar-21 03:33S 39°17' E 146°30'1110.7
2015-Mar-21 02:33S 39°17' E 146°16'1010.4
2015-Mar-21 01:33S 39°12' E 146°04'1010.5
2015-Mar-21 00:33S 39°06' E 145°53'1110.6
2015-Mar-20 23:31S 39°00' E 145°41'4710.8
2015-Mar-20 19:12S 38°35' E 144°51'1110.4
2015-Mar-20 18:09S 38°27' E 144°41'9 9.9
2015-Mar-20 17:12S 38°19' E 144°35'62 2.0
2015-Mar-19 10:33S 38°55' E 145°40'1616.3
2015-Mar-19 09:34S 39°03' E 145°58'1615.8
2015-Mar-19 08:34S 39°11' E 146°16'1615.8
2015-Mar-19 07:34S 39°09' E 146°36'1616.5
2015-Mar-19 06:33S 39°08' E 146°57'1616.5
2015-Mar-19 05:34S 39°08' E 147°19'1616.1
2015-Mar-19 04:34S 39°09' E 147°39'1615.8
2015-Mar-19 03:33S 39°10' E 147°60'1615.6
2015-Mar-19 02:34S 39°12' E 148°20'1615.6
2015-Mar-19 01:33S 39°13' E 148°40'1716.7
2015-Mar-19 00:33S 39°14' E 149°01'1717.0
2015-Mar-18 23:33S 39°15' E 149°23'3818.0
2015-Mar-18 21:26S 39°17' E 150°12'  

Dump ship's entire track history